createdAt,value
2023-04-16T00:02:12.780Z,99965.47
2023-04-16T00:04:39.539Z,99967.88
2023-04-16T00:07:06.115Z,99974.66
2023-04-16T00:09:35.170Z,99970.19
2023-04-16T00:12:04.473Z,99965.50
2023-04-16T00:14:33.404Z,99964.38
2023-04-16T00:17:02.853Z,99973.84
2023-04-16T00:19:31.958Z,99975.53
2023-04-16T00:22:01.119Z,99982.16
2023-04-16T00:24:30.529Z,99976.84
2023-04-16T00:27:02.133Z,99966.69
2023-04-16T00:29:32.448Z,99973.75
2023-04-16T00:31:59.131Z,99977.09
2023-04-16T00:34:25.788Z,99971.91
2023-04-16T00:36:52.410Z,99977.72
2023-04-16T00:39:19.142Z,99982.41
2023-04-16T00:41:46.369Z,99982.06
2023-04-16T00:44:12.996Z,99988.09
2023-04-16T00:46:42.227Z,99980.13
2023-04-16T00:49:11.718Z,99976.63
2023-04-16T00:51:40.980Z,99981.72
2023-04-16T00:54:07.589Z,99976.41
2023-04-16T00:56:34.799Z,99977.25
2023-04-16T00:59:01.521Z,99975.53
2023-04-16T01:01:30.489Z,99971.34
2023-04-16T01:03:57.406Z,99973.81
2023-04-16T01:06:24.251Z,99977.16
2023-04-16T01:08:50.910Z,99978.06
2023-04-16T01:11:17.682Z,99981.38
2023-04-16T01:13:46.662Z,99984.59
2023-04-16T01:16:13.468Z,99985.44
2023-04-16T01:18:40.175Z,99998.97
2023-04-16T01:21:07.033Z,99996.28
2023-04-16T01:23:36.085Z,99995.59
2023-04-16T01:26:05.755Z,99989.72
2023-04-16T01:28:35.199Z,99985.53
2023-04-16T01:31:01.844Z,99984.69
2023-04-16T01:33:50.681Z,99990.81
2023-04-16T01:36:17.279Z,99994.09
2023-04-16T01:38:45.260Z,99990.53
2023-04-16T01:41:11.825Z,99988.78
2023-04-16T01:43:40.203Z,99987.06
2023-04-16T01:46:10.245Z,99988.94
2023-04-16T01:48:42.118Z,99991.38
2023-04-16T01:51:10.102Z,99992.09
2023-04-16T01:53:38.871Z,99998.88
2023-04-16T01:56:08.478Z,99991.22
2023-04-16T01:58:35.559Z,99989.28
2023-04-16T02:01:02.428Z,99993.47
2023-04-16T02:03:31.812Z,99987.47
2023-04-16T02:06:01.838Z,99994.34
2023-04-16T02:08:28.898Z,99989.03
2023-04-16T02:10:56.031Z,99988.94
2023-04-16T02:13:25.632Z,99985.34
2023-04-16T02:15:52.812Z,99994.84
2023-04-16T02:18:42.316Z,100006.09
2023-04-16T02:21:09.622Z,100001.13
2023-04-16T02:23:41.131Z,100007.22
2023-04-16T02:26:07.961Z,100007.22
2023-04-16T02:28:34.546Z,100006.34
2023-04-16T02:31:01.732Z,100010.63
2023-04-16T02:33:33.221Z,100003.72
2023-04-16T02:36:05.839Z,100001.03
2023-04-16T02:38:32.587Z,100003.59
2023-04-16T02:40:59.414Z,100014.94
2023-04-16T02:43:28.605Z,100010.41
2023-04-16T02:45:56.238Z,100010.97
2023-04-16T02:48:25.375Z,100010.13
2023-04-16T02:50:52.049Z,100011.72
2023-04-16T02:53:21.470Z,100017.63
2023-04-16T02:55:55.019Z,100007.31
2023-04-16T02:58:21.981Z,100005.69
2023-04-16T03:00:48.980Z,99994.25
2023-04-16T03:03:16.201Z,100005.31
2023-04-16T03:05:42.933Z,100011.28
2023-04-16T03:08:12.323Z,100011.13
2023-04-16T03:10:41.921Z,100019.63
2023-04-16T03:13:08.607Z,100017.00
2023-04-16T03:15:35.240Z,100016.78
2023-04-16T03:18:02.330Z,100015.91
2023-04-16T03:20:29.016Z,100021.81
2023-04-16T03:22:55.601Z,100022.66
2023-04-16T03:25:22.236Z,100020.94
2023-04-16T03:27:51.655Z,100022.59
2023-04-16T03:30:18.843Z,100021.53
2023-04-16T03:32:48.182Z,100035.13
2023-04-16T03:35:15.913Z,100042.09
2023-04-16T03:37:42.791Z,100042.09
2023-04-16T03:40:09.987Z,100056.75
2023-04-16T03:42:37.467Z,100060.19
2023-04-16T03:45:05.232Z,100057.53
2023-04-16T03:47:32.116Z,100070.00
2023-04-16T03:50:02.018Z,100073.44
2023-04-16T03:52:28.697Z,100074.56
2023-04-16T03:54:58.176Z,100070.31
2023-04-16T03:57:27.512Z,100079.97
2023-04-16T03:59:58.209Z,100080.06
2023-04-16T04:02:27.805Z,100090.53
2023-04-16T04:04:56.970Z,100089.13
2023-04-16T04:07:23.710Z,100083.22
2023-04-16T04:09:51.921Z,100080.03
2023-04-16T04:12:18.660Z,100087.19
2023-04-16T04:14:46.351Z,100078.72
2023-04-16T04:17:12.978Z,100079.91
2023-04-16T04:19:50.645Z,100082.59
2023-04-16T04:22:20.791Z,100076.75
2023-04-16T04:24:47.475Z,100073.31
2023-04-16T04:27:16.452Z,100074.03
2023-04-16T04:29:45.518Z,100075.66
2023-04-16T04:32:14.641Z,100081.69
2023-04-16T04:34:43.759Z,100093.03
2023-04-16T04:37:10.960Z,100097.56
2023-04-16T04:39:39.888Z,100096.19
2023-04-16T04:42:06.672Z,100104.19
2023-04-16T04:44:33.241Z,100101.00
2023-04-16T04:46:59.892Z,100091.75
2023-04-16T04:49:31.028Z,100098.63
2023-04-16T04:51:57.674Z,100094.94
2023-04-16T04:54:24.607Z,100103.63
2023-04-16T04:56:53.556Z,100107.81
2023-04-16T04:59:20.680Z,100103.53
2023-04-16T05:01:47.498Z,100109.72
2023-04-16T05:04:14.259Z,100103.91
2023-04-16T05:06:43.160Z,100104.91
2023-04-16T05:09:11.949Z,100100.66
2023-04-16T05:11:41.671Z,100111.22
2023-04-16T05:14:08.820Z,100119.09
2023-04-16T05:16:40.856Z,100116.78
2023-04-16T05:19:08.339Z,100118.84
2023-04-16T05:21:35.453Z,100105.06
2023-04-16T05:24:02.099Z,100102.81
2023-04-16T05:26:31.164Z,100105.56
2023-04-16T05:28:57.758Z,100110.94
2023-04-16T05:31:24.401Z,100108.66
2023-04-16T05:33:51.080Z,100110.44
2023-04-16T05:36:17.775Z,100116.66
2023-04-16T05:38:44.333Z,100129.00
2023-04-16T05:41:10.905Z,100136.81
2023-04-16T05:43:37.620Z,100139.81
2023-04-16T05:46:09.590Z,100129.00
2023-04-16T05:48:36.355Z,100140.06
2023-04-16T05:51:03.397Z,100132.78
2023-04-16T05:53:30.125Z,100133.16
2023-04-16T05:55:56.904Z,100137.75
2023-04-16T05:58:23.550Z,100149.16
2023-04-16T06:00:52.780Z,100144.28
2023-04-16T06:03:22.427Z,100152.16
2023-04-16T06:05:49.505Z,100156.50
2023-04-16T06:08:21.235Z,100156.63
2023-04-16T06:10:50.606Z,100156.88
2023-04-16T06:13:17.208Z,100153.03
2023-04-16T06:15:44.272Z,100143.81
2023-04-16T06:18:10.977Z,100147.47
2023-04-16T06:20:40.390Z,100154.25
2023-04-16T06:23:09.553Z,100143.31
2023-04-16T06:25:36.251Z,100150.47
2023-04-16T06:28:03.167Z,100150.00
2023-04-16T06:30:29.897Z,100142.22
2023-04-16T06:32:58.916Z,100152.03
2023-04-16T06:35:25.655Z,100147.38
2023-04-16T06:37:58.962Z,100152.25
2023-04-16T06:40:25.686Z,100153.59
2023-04-16T06:42:52.306Z,100150.91
2023-04-16T06:45:21.352Z,100140.94
2023-04-16T06:47:48.275Z,100135.22
2023-04-16T06:50:15.006Z,100151.59
2023-04-16T06:52:41.591Z,100151.06
2023-04-16T06:55:10.684Z,100143.66
2023-04-16T06:57:41.067Z,100143.03
2023-04-16T07:00:08.228Z,100136.41
2023-04-16T07:02:35.078Z,100134.81
2023-04-16T07:05:01.990Z,100135.03
2023-04-16T07:07:28.700Z,100139.00
2023-04-16T07:09:58.097Z,100144.22
2023-04-16T07:12:24.781Z,100140.66
2023-04-16T07:14:51.627Z,100148.13
2023-04-16T07:17:18.620Z,100148.41
2023-04-16T07:19:45.416Z,100148.47
2023-04-16T07:22:14.362Z,100149.88
2023-04-16T07:24:41.178Z,100136.00
2023-04-16T07:27:07.800Z,100142.25
2023-04-16T07:29:37.191Z,100151.22
2023-04-16T07:32:08.481Z,100145.53
2023-04-16T07:34:37.634Z,100145.03
2023-04-16T07:37:04.305Z,100141.94
2023-04-16T07:39:30.998Z,100149.03
2023-04-16T07:41:57.649Z,100150.69
2023-04-16T07:44:24.269Z,100144.56
2023-04-16T07:46:51.327Z,100151.56
2023-04-16T07:49:20.444Z,100143.25
2023-04-16T07:51:47.315Z,100142.22
2023-04-16T07:54:13.937Z,100147.56
2023-04-16T07:56:43.402Z,100145.06
2023-04-16T07:59:22.167Z,100140.16
2023-04-16T08:01:52.882Z,100142.94
2023-04-16T08:04:25.058Z,100139.72
2023-04-16T08:06:52.675Z,100145.97
2023-04-16T08:09:22.897Z,100142.72
2023-04-16T08:11:49.993Z,100144.94
2023-04-16T08:14:17.134Z,100143.56
2023-04-16T08:16:43.784Z,100137.41
2023-04-16T08:19:10.729Z,100141.78
2023-04-16T08:21:37.851Z,100141.22
2023-04-16T08:24:04.592Z,100130.31
2023-04-16T08:26:33.620Z,100137.72
2023-04-16T08:29:02.745Z,100141.44
2023-04-16T08:31:31.988Z,100144.09
2023-04-16T08:33:59.052Z,100150.31
2023-04-16T08:36:32.995Z,100146.09
2023-04-16T08:39:02.097Z,100146.16
2023-04-16T08:41:29.494Z,100147.25
2023-04-16T08:44:00.554Z,100160.41
2023-04-16T08:46:27.358Z,100150.94
2023-04-16T08:48:54.942Z,100151.97
2023-04-16T08:51:24.202Z,100149.63
2023-04-16T08:53:50.778Z,100155.78
2023-04-16T08:56:17.447Z,100154.19
2023-04-16T08:58:44.113Z,100159.50
2023-04-16T09:01:11.351Z,100162.97
2023-04-16T09:03:37.993Z,100158.44
2023-04-16T09:06:07.170Z,100159.34
2023-04-16T09:08:34.748Z,100167.25
2023-04-16T09:11:01.440Z,100166.44
2023-04-16T09:13:30.725Z,100168.28
2023-04-16T09:15:59.949Z,100158.75
2023-04-16T09:18:28.151Z,100164.03
2023-04-16T09:20:56.409Z,100171.03
2023-04-16T09:23:25.429Z,100167.53
2023-04-16T09:25:55.952Z,100172.81
2023-04-16T09:28:41.036Z,100183.28
2023-04-16T09:31:12.009Z,100178.00
2023-04-16T09:33:38.823Z,100177.16
2023-04-16T09:36:08.016Z,100175.41
2023-04-16T09:38:50.709Z,100168.44
2023-04-16T09:41:17.558Z,100172.78
2023-04-16T09:44:05.447Z,100184.03
2023-04-16T09:46:34.419Z,100182.25
2023-04-16T09:49:13.222Z,100189.25
2023-04-16T09:51:46.813Z,100192.75
2023-04-16T09:54:16.232Z,100190.13
2023-04-16T09:56:43.371Z,100184.03
2023-04-16T09:59:19.198Z,100193.56
2023-04-16T10:01:49.864Z,100184.81
2023-04-16T10:04:20.572Z,100190.97
2023-04-16T10:07:02.304Z,100178.78
2023-04-16T10:09:32.296Z,100177.09
2023-04-16T10:11:59.299Z,100176.31
2023-04-16T10:14:30.790Z,100178.03
2023-04-16T10:16:57.462Z,100168.44
2023-04-16T10:19:25.005Z,100168.47
2023-04-16T10:21:54.411Z,100166.72
2023-04-16T10:24:21.009Z,100159.72
2023-04-16T10:26:48.052Z,100164.06
2023-04-16T10:29:24.653Z,100169.28
2023-04-16T10:31:54.529Z,100168.31
2023-04-16T10:34:23.972Z,100161.19
2023-04-16T10:36:52.627Z,100154.81
2023-04-16T10:39:30.833Z,100160.91
2023-04-16T10:42:11.926Z,100147.53
2023-04-16T10:44:44.378Z,100140.28
2023-04-16T10:47:13.233Z,100137.59
2023-04-16T10:49:42.551Z,100136.50
2023-04-16T10:52:13.660Z,100142.34
2023-04-16T10:54:40.917Z,100136.13
2023-04-16T10:57:10.814Z,100134.09
2023-04-16T10:59:38.151Z,100129.41
2023-04-16T11:02:09.799Z,100127.56
2023-04-16T11:04:37.521Z,100121.28
2023-04-16T11:07:07.435Z,100121.53
2023-04-16T11:09:46.849Z,100114.00
2023-04-16T11:12:16.725Z,100124.25
2023-04-16T11:14:43.271Z,100119.78
2023-04-16T11:17:13.033Z,100122.22
2023-04-16T11:19:42.467Z,100128.22
2023-04-16T11:22:10.642Z,100126.28
2023-04-16T11:24:39.226Z,100132.31
2023-04-16T11:27:05.998Z,100131.78
2023-04-16T11:29:34.964Z,100118.25
2023-04-16T11:32:04.374Z,100120.31
2023-04-16T11:34:31.037Z,100117.19
2023-04-16T11:37:00.036Z,100110.34
2023-04-16T11:39:29.319Z,100125.47
2023-04-16T11:41:56.176Z,100120.28
2023-04-16T11:44:23.936Z,100121.06
2023-04-16T11:46:53.297Z,100114.63
2023-04-16T11:49:31.825Z,100116.63
2023-04-16T11:51:58.826Z,100118.19
2023-04-16T11:54:26.047Z,100116.53
2023-04-16T11:56:56.007Z,100109.53
2023-04-16T11:59:23.904Z,99986.00
2023-04-16T12:01:51.579Z,100107.38
2023-04-16T12:04:22.911Z,100104.94
2023-04-16T12:07:08.198Z,100106.31
2023-04-16T12:09:40.730Z,100107.75
2023-04-16T12:12:28.332Z,100105.41
2023-04-16T12:14:57.034Z,100102.25
2023-04-16T12:17:28.868Z,100100.28
2023-04-16T12:19:59.634Z,100103.47
2023-04-16T12:22:27.323Z,100093.91
2023-04-16T12:25:01.247Z,100091.84
2023-04-16T12:27:41.148Z,100094.38
2023-04-16T12:30:08.075Z,100087.75
2023-04-16T12:32:34.808Z,100099.16
2023-04-16T12:35:03.991Z,100089.38
2023-04-16T12:37:33.260Z,100088.44
2023-04-16T12:40:00.341Z,100090.06
2023-04-16T12:42:27.105Z,100082.25
2023-04-16T12:44:53.735Z,100076.16
2023-04-16T12:47:20.503Z,100084.84
2023-04-16T12:49:47.163Z,100077.84
2023-04-16T12:52:16.249Z,100083.97
2023-04-16T12:54:42.859Z,100078.25
2023-04-16T12:57:13.040Z,100076.03
2023-04-16T12:59:42.240Z,100074.41
2023-04-16T13:02:09.300Z,100071.53
2023-04-16T13:04:38.612Z,100074.88
2023-04-16T13:07:10.979Z,100074.50
2023-04-16T13:09:40.204Z,100070.28
2023-04-16T13:12:07.146Z,100056.88
2023-04-16T13:14:36.446Z,100066.50
2023-04-16T13:17:05.619Z,100057.06
2023-04-16T13:19:32.394Z,100062.25
2023-04-16T13:21:59.221Z,100049.72
2023-04-16T13:24:26.297Z,100059.97
2023-04-16T13:26:57.795Z,100063.19
2023-04-16T13:29:24.423Z,100059.44
2023-04-16T13:31:51.238Z,100057.09
2023-04-16T13:34:22.828Z,100061.78
2023-04-16T13:36:49.525Z,100057.91
2023-04-16T13:39:19.029Z,100046.53
2023-04-16T13:41:46.028Z,100047.66
2023-04-16T13:44:15.061Z,100044.28
2023-04-16T13:46:47.644Z,100046.06
2023-04-16T13:49:16.605Z,100045.25
2023-04-16T13:51:44.192Z,100043.63
2023-04-16T13:54:10.885Z,100046.25
2023-04-16T13:56:37.526Z,100038.25
2023-04-16T13:59:04.114Z,100045.38
2023-04-16T14:01:33.759Z,100048.03
2023-04-16T14:04:05.984Z,100044.34
2023-04-16T14:06:33.312Z,100034.72
2023-04-16T14:08:59.951Z,100044.72
2023-04-16T14:11:28.944Z,100042.19
2023-04-16T14:13:55.640Z,100037.81
2023-04-16T14:16:22.363Z,100040.63
2023-04-16T14:18:49.187Z,100035.34
2023-04-16T14:21:16.148Z,100038.94
2023-04-16T14:23:42.865Z,100036.44
2023-04-16T14:26:09.491Z,100030.34
2023-04-16T14:28:36.449Z,100037.47
2023-04-16T14:31:03.025Z,100030.59
2023-04-16T14:33:32.406Z,100030.63
2023-04-16T14:36:01.224Z,100021.84
2023-04-16T14:38:29.644Z,100026.22
2023-04-16T14:41:00.292Z,100018.47
2023-04-16T14:43:27.387Z,100019.44
2023-04-16T14:45:54.252Z,100023.78
2023-04-16T14:48:23.584Z,100024.88
2023-04-16T14:50:50.645Z,100021.16
2023-04-16T14:53:17.348Z,100020.16
2023-04-16T14:55:46.806Z,100017.56
2023-04-16T14:58:14.086Z,100017.72
2023-04-16T15:00:40.769Z,100021.56
2023-04-16T15:03:07.478Z,100023.13
2023-04-16T15:05:37.461Z,100018.78
2023-04-16T15:08:05.696Z,100025.81
2023-04-16T15:10:32.901Z,100012.50
2023-04-16T15:12:59.551Z,100012.53
2023-04-16T15:15:26.142Z,100004.88
2023-04-16T15:17:57.056Z,100004.66
2023-04-16T15:20:24.468Z,100013.19
2023-04-16T15:22:53.983Z,100017.34
2023-04-16T15:25:21.165Z,100011.56
2023-04-16T15:27:47.968Z,100014.59
2023-04-16T15:30:14.795Z,100012.78
2023-04-16T15:32:42.246Z,100014.56
2023-04-16T15:35:11.440Z,100012.38
2023-04-16T15:37:42.940Z,100010.94
2023-04-16T15:40:11.965Z,100012.34
2023-04-16T15:42:39.069Z,100013.56
2023-04-16T15:45:11.295Z,100010.75
2023-04-16T15:47:41.836Z,100003.03
2023-04-16T15:50:08.824Z,100008.56
2023-04-16T15:52:38.655Z,100007.94
2023-04-16T15:55:07.746Z,100008.81
2023-04-16T15:57:34.814Z,100011.22
2023-04-16T16:02:31.951Z,100011.75
2023-04-16T16:05:00.346Z,100019.25
2023-04-16T16:07:29.444Z,100014.38
2023-04-16T16:09:58.560Z,100021.25
2023-04-16T16:12:33.055Z,100015.03
2023-04-16T16:15:00.175Z,100022.66
2023-04-16T16:17:26.848Z,100021.28
2023-04-16T16:19:53.638Z,100021.63
2023-04-16T16:22:20.772Z,100019.16
2023-04-16T16:24:51.016Z,100025.47
2023-04-16T16:27:20.981Z,100029.09
2023-04-16T16:29:49.942Z,100030.16
2023-04-16T16:32:19.469Z,100029.44
2023-04-16T16:34:46.082Z,100029.50
2023-04-16T16:37:13.173Z,100028.69
2023-04-16T16:39:39.832Z,100028.81
2023-04-16T16:42:09.043Z,100024.44
2023-04-16T16:44:35.706Z,100024.47
2023-04-16T16:47:02.900Z,100023.59
2023-04-16T16:49:32.317Z,100023.63
2023-04-16T16:52:03.557Z,100023.69
2023-04-16T16:54:30.454Z,100038.63
2023-04-16T16:56:59.558Z,100029.94
2023-04-16T16:59:31.049Z,100037.88
2023-04-16T17:01:58.068Z,100035.28
2023-04-16T17:04:24.733Z,100045.84
2023-04-16T17:06:51.518Z,100034.47
2023-04-16T17:09:18.164Z,100034.50
2023-04-16T17:11:44.809Z,100043.28
2023-04-16T17:14:11.398Z,100045.94
2023-04-16T17:16:38.146Z,100041.53
2023-04-16T17:19:04.774Z,100049.47
2023-04-16T17:21:33.106Z,100044.22
2023-04-16T17:24:00.131Z,100046.88
2023-04-16T17:26:27.316Z,100053.88
2023-04-16T17:28:54.311Z,100061.72
2023-04-16T17:31:21.461Z,100055.56
2023-04-16T17:33:53.433Z,100061.56
2023-04-16T17:36:25.662Z,100058.88
2023-04-16T17:38:54.704Z,100061.47
2023-04-16T17:41:21.462Z,100066.66
2023-04-16T17:43:50.673Z,100071.00
2023-04-16T17:46:22.671Z,100063.88
2023-04-16T17:48:51.905Z,100066.44
2023-04-16T17:51:18.706Z,100069.94
2023-04-16T17:53:45.418Z,100072.59
2023-04-16T17:56:14.749Z,100062.09
2023-04-16T17:58:43.979Z,100062.03
2023-04-16T18:01:15.684Z,100081.91
2023-04-16T18:03:44.363Z,100094.03
2023-04-16T18:06:13.672Z,100097.50
2023-04-16T18:08:40.855Z,100084.47
2023-04-16T18:11:10.782Z,100093.16
2023-04-16T18:13:37.732Z,100095.81
2023-04-16T18:16:04.497Z,100099.22
2023-04-16T18:18:31.304Z,100103.56
2023-04-16T18:20:58.153Z,100104.50
2023-04-16T18:23:25.492Z,100109.78
2023-04-16T18:25:54.619Z,100107.13
2023-04-16T18:28:21.596Z,100112.38
2023-04-16T18:35:47.926Z,100106.25
2023-04-16T18:38:14.666Z,100090.63
2023-04-16T18:40:42.203Z,100087.03
2023-04-16T18:43:11.361Z,100093.03
2023-04-16T18:45:38.005Z,100086.84
2023-04-16T18:48:04.803Z,100091.19
2023-04-16T18:50:32.134Z,100088.56
2023-04-16T18:53:01.129Z,100083.25
2023-04-16T18:55:27.752Z,100086.72
2023-04-16T18:57:57.076Z,100086.78
2023-04-16T19:00:26.111Z,100091.03
2023-04-16T19:02:53.077Z,100086.69
2023-04-16T19:05:23.445Z,100081.38
2023-04-16T19:07:52.930Z,100077.97
2023-04-16T19:10:22.086Z,100067.59
2023-04-16T19:12:51.151Z,100072.78
2023-04-16T19:15:17.789Z,100072.72
2023-04-16T19:17:46.924Z,100061.28
2023-04-16T19:20:13.905Z,100071.69
2023-04-16T19:22:40.870Z,100071.72
2023-04-16T19:25:08.212Z,100088.28
2023-04-16T19:27:35.017Z,100083.94
2023-04-16T19:30:02.874Z,100076.94
2023-04-16T19:32:29.653Z,100074.22
2023-04-16T19:34:56.893Z,100083.81
2023-04-16T19:37:23.646Z,100077.63
2023-04-16T19:39:52.686Z,100082.84
2023-04-16T19:42:19.350Z,100081.94
2023-04-16T19:44:46.170Z,100081.03
2023-04-16T19:47:12.836Z,100072.31
2023-04-16T19:49:39.631Z,100079.28
2023-04-16T19:52:06.735Z,100075.81
2023-04-16T19:54:37.385Z,100068.84
2023-04-16T19:57:04.681Z,100069.69
2023-04-16T19:59:32.352Z,100070.56
2023-04-16T20:01:59.171Z,100072.28
2023-04-16T20:04:25.996Z,100068.75
2023-04-16T20:06:52.955Z,100070.41
2023-04-16T20:09:20.270Z,100073.88
2023-04-16T20:11:47.136Z,100071.28
2023-04-16T20:14:13.798Z,100062.56
2023-04-16T20:16:40.976Z,100063.44
2023-04-16T20:19:08.881Z,100065.19
2023-04-16T20:21:38.210Z,100059.09
2023-04-16T20:24:05.152Z,100061.78
2023-04-16T20:26:37.729Z,100065.25
2023-04-16T20:29:04.493Z,100064.41
2023-04-16T20:31:40.210Z,100062.72
2023-04-16T20:34:07.905Z,100061.88
2023-04-16T20:36:34.861Z,100067.94
2023-04-16T20:39:07.225Z,100061.84
2023-04-16T20:41:34.071Z,100062.69
2023-04-16T20:44:05.565Z,100064.38
2023-04-16T20:46:34.458Z,100072.19
2023-04-16T20:49:04.068Z,100064.38
2023-04-16T20:51:31.692Z,100065.16
2023-04-16T20:54:10.523Z,100057.25
2023-04-16T20:56:39.372Z,100057.25
2023-04-16T20:59:08.089Z,100055.59
2023-04-16T21:01:37.274Z,100053.00
2023-04-16T21:04:06.831Z,100059.84
2023-04-16T21:06:38.593Z,100062.47
2023-04-16T21:09:06.091Z,100058.97
2023-04-16T21:11:35.070Z,100061.63
2023-04-16T21:14:02.159Z,100059.03
2023-04-16T21:16:29.626Z,100054.66
2023-04-16T21:18:56.862Z,100062.34
2023-04-16T21:21:23.846Z,100062.09
2023-04-16T21:23:52.788Z,100067.22
2023-04-16T21:26:19.519Z,100061.97
2023-04-16T21:28:46.109Z,100048.88
2023-04-16T21:31:12.744Z,100059.34
2023-04-16T21:33:42.661Z,100050.63
2023-04-16T21:36:10.197Z,100048.06
2023-04-16T21:38:39.247Z,100054.28
2023-04-16T21:41:07.986Z,100052.59
2023-04-16T21:43:38.338Z,100053.28
2023-04-16T21:46:07.922Z,100059.22
2023-04-16T21:48:37.310Z,100047.78
2023-04-16T21:51:08.179Z,100044.22
2023-04-16T21:53:38.691Z,100049.59
2023-04-16T21:56:06.151Z,100038.25
2023-04-16T21:58:34.961Z,100037.25
2023-04-16T22:01:01.778Z,100037.13
2023-04-16T22:03:31.253Z,100037.06
2023-04-16T22:06:01.277Z,100035.28
2023-04-16T22:08:31.071Z,100034.41
2023-04-16T22:10:59.571Z,100024.91
2023-04-16T22:13:30.014Z,100034.38
2023-04-16T22:15:57.850Z,100035.19
2023-04-16T22:18:25.726Z,100032.66
2023-04-16T22:20:55.907Z,100027.47
2023-04-16T22:23:23.136Z,100024.91
2023-04-16T22:25:49.856Z,100024.13
2023-04-16T22:28:16.689Z,100023.25
2023-04-16T22:30:45.711Z,100021.50
2023-04-16T22:33:12.464Z,100017.13
2023-04-16T22:35:39.126Z,100017.06
2023-04-16T22:38:08.310Z,100013.59
2023-04-16T22:40:34.893Z,100013.50
2023-04-16T22:43:01.646Z,100016.94
2023-04-16T22:45:28.585Z,100020.44
2023-04-16T22:47:57.608Z,100014.47
2023-04-16T22:50:27.283Z,100015.34
2023-04-16T22:52:54.283Z,100019.69
2023-04-16T22:55:23.558Z,100018.94
2023-04-16T22:57:50.339Z,100013.69
2023-04-16T23:00:17.961Z,100010.16
2023-04-16T23:02:45.196Z,100001.41
2023-04-16T23:05:14.850Z,100005.78
2023-04-16T23:07:41.587Z,100003.13
2023-04-16T23:10:09.000Z,100011.81
2023-04-16T23:12:38.074Z,99993.41
2023-04-16T23:15:06.607Z,99993.31
2023-04-16T23:17:38.313Z,99993.31
2023-04-16T23:20:08.067Z,99996.88
2023-04-16T23:22:34.666Z,99999.44
2023-04-16T23:25:03.944Z,99999.41
2023-04-16T23:27:32.596Z,99987.22
2023-04-16T23:30:01.897Z,99995.88
2023-04-16T23:32:28.665Z,99987.19
2023-04-16T23:34:57.746Z,99988.91
2023-04-16T23:37:28.507Z,99984.63
2023-04-16T23:39:55.168Z,99981.19
2023-04-16T23:42:21.975Z,99978.59
2023-04-16T23:44:53.329Z,99981.25
2023-04-16T23:47:25.222Z,99978.56
2023-04-16T23:49:51.778Z,99974.28
2023-04-16T23:52:18.722Z,99975.06
2023-04-16T23:54:47.682Z,99968.00
2023-04-16T23:57:16.585Z,99961.84
2023-04-16T23:59:43.229Z,99963.41
